Time;durP1;ratioP1;P1;durP2;ratioP2;P2;SDS_P1;SDS_P2;PMS_P1;PMS_P2;Temp;Humidity;BMP_temperature;BMP_pressure;BME280_temperature;BME280_humidity;BME280_pressure;Samples;Min_cycle;Max_cycle;Signal;HPM_P1;HPM_P2
2023/11/07 00:03:22;;;;;;;4.65;0.30;;;;;;;11.29;70.69;99771.25;10425884;28;20115;-89
2023/11/07 00:08:24;;;;;;;0.60;0.38;;;;;;;11.24;70.90;99765.59;10472710;28;20056;-88
2023/11/07 00:13:25;;;;;;;2.00;0.30;;;;;;;11.20;70.96;99779.66;10484822;28;20042;-88
2023/11/07 00:18:27;;;;;;;2.20;0.30;;;;;;;11.14;71.08;99775.88;10472193;28;20025;-88
2023/11/07 00:23:29;;;;;;;0.17;0.15;;;;;;;11.14;70.73;99783.94;10453342;28;20278;-88
2023/11/07 00:28:30;;;;;;;4.28;0.30;;;;;;;11.15;70.82;99787.47;10435364;28;20033;-89
2023/11/07 00:33:32;;;;;;;3.38;0.38;;;;;;;11.14;71.11;99796.53;10448102;28;20083;-88
2023/11/07 00:38:34;;;;;;;2.10;0.30;;;;;;;11.16;70.77;99789.09;10445645;28;20037;-88
2023/11/07 00:43:35;;;;;;;0.68;0.30;;;;;;;11.22;70.78;99802.63;10424564;28;20258;-89
2023/11/07 00:48:37;;;;;;;1.13;0.60;;;;;;;11.22;70.99;99812.56;10434170;28;20040;-88
2023/11/07 00:53:40;;;;;;;3.50;0.40;;;;;;;11.25;70.21;99806.78;10452950;28;20036;-88
2023/11/07 00:58:42;;;;;;;2.25;0.40;;;;;;;11.31;70.53;99827.53;10471504;28;20036;-86
2023/11/07 01:03:45;;;;;;;1.00;0.30;;;;;;;11.36;70.64;99821.59;10448013;28;20036;-88
2023/11/07 01:08:47;;;;;;;2.63;0.32;;;;;;;11.43;70.74;99827.84;10455478;28;20421;-87
2023/11/07 01:13:49;;;;;;;3.90;0.30;;;;;;;11.45;70.43;99834.72;10438205;28;20044;-85
2023/11/07 01:18:52;;;;;;;3.92;0.55;;;;;;;11.45;70.23;99839.25;10404152;28;20057;-86
2023/11/07 01:23:54;;;;;;;1.20;0.30;;;;;;;11.58;69.83;99838.53;10396570;28;20053;-85
2023/11/07 01:28:55;;;;;;;0.77;0.20;;;;;;;11.61;69.90;99843.50;10408777;28;20064;-86
2023/11/07 01:33:57;;;;;;;1.88;0.77;;;;;;;11.61;69.66;99846.19;10428396;28;20053;-85
2023/11/07 01:38:59;;;;;;;4.45;0.50;;;;;;;11.61;69.86;99838.13;10406444;28;20120;-86
2023/11/07 01:44:00;;;;;;;2.38;0.20;;;;;;;11.64;69.27;99843.94;10442962;28;20045;-86
2023/11/07 01:49:03;;;;;;;2.53;0.25;;;;;;;11.58;69.81;99841.22;10408238;28;20090;-85
2023/11/07 01:54:07;;;;;;;3.30;0.30;;;;;;;11.64;69.61;99841.25;10405801;28;20052;-85
2023/11/07 01:59:09;;;;;;;0.47;0.22;;;;;;;11.76;68.99;99832.66;10414281;28;20049;-86
2023/11/07 02:04:11;;;;;;;1.23;0.25;;;;;;;11.69;68.90;99844.22;10426363;28;20167;-87
2023/11/07 02:09:12;;;;;;;1.80;0.28;;;;;;;11.63;68.91;99850.38;10419037;28;20050;-86
2023/11/07 02:14:28;;;;;;;3.25;0.20;;;;;;;11.66;68.66;99857.22;10414129;28;20045;-86
2023/11/07 02:19:31;;;;;;;1.02;0.20;;;;;;;11.66;68.77;99855.34;10439114;28;20045;-86
2023/11/07 02:24:33;;;;;;;0.40;0.20;;;;;;;11.65;68.59;99852.84;10438676;28;20124;-85
2023/11/07 02:29:37;;;;;;;1.30;0.30;;;;;;;11.64;68.46;99849.34;10445079;28;20656;-86
2023/11/07 02:34:39;;;;;;;1.80;0.60;;;;;;;11.67;68.53;99838.19;10419142;28;20474;-86
2023/11/07 02:39:41;;;;;;;2.83;0.30;;;;;;;11.71;68.51;99841.31;10443913;28;20051;-86
2023/11/07 02:44:43;;;;;;;2.92;0.30;;;;;;;11.70;68.26;99845.84;10422309;28;20040;-86
2023/11/07 02:49:44;;;;;;;1.25;0.30;;;;;;;11.68;68.14;99839.84;10412003;28;20500;-86
2023/11/07 02:54:46;;;;;;;3.85;0.20;;;;;;;11.74;68.01;99846.31;10415757;28;20132;-86
2023/11/07 02:59:49;;;;;;;5.00;0.43;;;;;;;11.83;67.92;99839.75;10429199;28;20045;-87
2023/11/07 03:04:54;;;;;;;5.95;0.47;;;;;;;11.73;67.65;99847.34;10415157;28;20047;-86
2023/11/07 03:09:58;;;;;;;3.22;0.25;;;;;;;11.76;67.86;99833.47;10422851;28;20080;-86
2023/11/07 03:14:59;;;;;;;1.85;0.40;;;;;;;11.78;67.62;99828.72;10430125;28;20037;-87
2023/11/07 03:20:01;;;;;;;2.08;0.20;;;;;;;11.69;68.06;99836.13;10482206;28;20096;-87
2023/11/07 03:25:04;;;;;;;1.15;0.25;;;;;;;11.70;68.18;99839.66;10462328;28;20028;-87
2023/11/07 03:30:06;;;;;;;2.80;0.30;;;;;;;11.75;68.18;99830.97;10455795;28;20072;-86
2023/11/07 03:35:08;;;;;;;1.60;0.30;;;;;;;11.85;68.02;99834.16;10437975;28;20062;-89
2023/11/07 03:40:12;;;;;;;2.58;0.30;;;;;;;11.76;68.04;99828.09;10426107;28;20076;-90
2023/11/07 03:45:14;;;;;;;2.13;0.40;;;;;;;11.82;67.62;99835.38;10429885;28;20641;-88
2023/11/07 03:50:15;;;;;;;3.90;0.40;;;;;;;11.82;67.79;99834.56;10435600;28;20054;-88
2023/11/07 03:55:17;;;;;;;2.15;0.20;;;;;;;11.84;67.71;99841.41;10441765;28;20045;-89
2023/11/07 04:00:19;;;;;;;3.72;0.20;;;;;;;11.81;68.19;99859.81;10423206;28;20041;-90
2023/11/07 04:05:22;;;;;;;1.23;0.30;;;;;;;11.74;68.40;99850.88;10422186;28;20504;-89
2023/11/07 04:10:25;;;;;;;4.82;0.52;;;;;;;11.68;68.51;99858.69;10436312;28;20088;-89
2023/11/07 04:15:27;;;;;;;2.13;0.30;;;;;;;11.71;68.32;99868.25;10422403;28;20047;-88
2023/11/07 04:20:29;;;;;;;0.88;0.15;;;;;;;11.77;68.54;99874.69;10457598;28;20059;-89
2023/11/07 04:25:31;;;;;;;2.47;0.32;;;;;;;11.81;68.74;99867.88;10441434;28;20076;-89
2023/11/07 04:30:33;;;;;;;1.10;0.30;;;;;;;11.78;68.32;99868.28;10431272;28;20037;-89
2023/11/07 04:35:34;;;;;;;0.45;0.20;;;;;;;11.86;67.95;99865.44;10423770;28;20057;-87
2023/11/07 04:40:39;;;;;;;1.58;0.95;;;;;;;11.93;68.02;99866.38;10449715;28;20069;-89
2023/11/07 04:45:41;;;;;;;1.30;0.47;;;;;;;11.95;67.83;99864.31;10400092;28;20409;-86
2023/11/07 04:50:44;;;;;;;1.95;0.20;;;;;;;11.83;68.05;99860.47;10419633;28;20076;-86
2023/11/07 04:55:46;;;;;;;3.35;0.60;;;;;;;11.95;68.08;99850.84;10390574;28;20041;-86
2023/11/07 05:00:48;;;;;;;1.40;0.40;;;;;;;11.99;68.12;99856.66;10386404;28;20033;-87
2023/11/07 05:05:49;;;;;;;1.20;0.40;;;;;;;12.03;67.98;99847.16;10423047;28;20068;-86
2023/11/07 05:10:51;;;;;;;1.67;0.20;;;;;;;11.99;68.13;99848.59;10396192;28;20045;-86
2023/11/07 05:15:53;;;;;;;2.58;0.20;;;;;;;11.98;68.00;99845.03;10410218;28;20620;-86
2023/11/07 05:20:55;;;;;;;1.05;0.30;;;;;;;12.00;67.87;99839.47;10428093;28;20090;-86
2023/11/07 05:25:57;;;;;;;3.35;0.43;;;;;;;12.04;68.16;99840.72;10413003;28;20045;-86
2023/11/07 05:30:58;;;;;;;0.43;0.30;;;;;;;11.98;68.17;99831.56;10402501;28;20128;-86
2023/11/07 05:36:00;;;;;;;2.58;0.25;;;;;;;11.90;68.10;99832.56;10431883;28;20058;-86
2023/11/07 05:41:02;;;;;;;2.78;0.40;;;;;;;11.95;68.05;99832.00;10412419;28;20072;-84
2023/11/07 05:46:04;;;;;;;7.00;0.40;;;;;;;11.90;68.33;99824.47;10437042;28;20056;-88
2023/11/07 05:51:07;;;;;;;3.33;0.32;;;;;;;11.87;68.25;99832.13;10457660;28;20049;-88
2023/11/07 05:56:09;;;;;;;1.88;0.65;;;;;;;11.90;68.21;99829.03;10445968;23;20190;-68
2023/11/07 06:01:10;;;;;;;3.53;0.50;;;;;;;11.88;68.17;99833.75;10419288;28;20045;-71
2023/11/07 06:06:12;;;;;;;2.47;0.40;;;;;;;11.83;68.50;99828.16;10417734;28;20637;-69
2023/11/07 06:11:15;;;;;;;2.78;1.38;;;;;;;11.80;68.81;99834.75;10420865;28;20060;-68
2023/11/07 06:16:17;;;;;;;2.95;0.30;;;;;;;11.85;68.39;99842.25;10431373;28;20045;-69
2023/11/07 06:21:18;;;;;;;3.75;0.50;;;;;;;11.84;68.73;99848.66;10424717;28;20060;-70
2023/11/07 06:26:21;;;;;;;2.70;0.50;;;;;;;11.82;68.76;99856.91;10429012;28;20045;-62
2023/11/07 06:31:27;;;;;;;3.78;0.50;;;;;;;11.82;68.71;99856.09;10425713;28;20053;-60
2023/11/07 06:36:28;;;;;;;1.42;0.43;;;;;;;11.76;68.88;99867.66;10434097;28;20041;-61
2023/11/07 06:41:30;;;;;;;1.20;0.40;;;;;;;11.82;68.60;99875.78;10395864;28;20038;-62
2023/11/07 06:46:32;;;;;;;1.92;1.20;;;;;;;11.76;68.79;99879.25;10374158;28;20374;-60
2023/11/07 06:51:33;;;;;;;3.92;0.52;;;;;;;11.71;69.08;99877.16;10375969;28;20568;-61
2023/11/07 06:56:35;;;;;;;2.95;0.60;;;;;;;11.71;68.49;99885.22;10375962;28;20049;-61
2023/11/07 07:01:37;;;;;;;1.27;0.30;;;;;;;11.75;68.82;99885.69;10377585;28;20050;-61
2023/11/07 07:06:38;;;;;;;2.47;0.30;;;;;;;11.81;68.45;99884.91;10379845;28;20056;-61
2023/11/07 07:11:40;;;;;;;2.08;0.35;;;;;;;11.83;68.69;99882.00;10381684;28;20033;-60
2023/11/07 07:16:41;;;;;;;1.63;0.40;;;;;;;11.79;68.72;99888.78;10379288;28;20103;-60
2023/11/07 07:21:43;;;;;;;4.97;0.30;;;;;;;11.69;68.86;99889.97;10373644;28;20340;-62
2023/11/07 07:26:46;;;;;;;3.33;0.45;;;;;;;11.69;68.80;99889.97;10376332;28;20054;-62
2023/11/07 07:31:47;;;;;;;3.40;0.45;;;;;;;11.73;68.71;99897.66;10384937;28;20378;-61
2023/11/07 07:36:50;;;;;;;0.90;0.30;;;;;;;11.70;69.00;99898.88;10361587;28;20049;-62
2023/11/07 07:41:52;;;;;;;3.42;0.50;;;;;;;11.73;69.23;99906.59;10381422;28;20050;-62
2023/11/07 07:46:54;;;;;;;1.83;0.38;;;;;;;11.79;68.81;99910.34;10365057;28;20127;-63
2023/11/07 07:51:58;;;;;;;2.03;0.30;;;;;;;11.79;68.79;99903.13;10372591;28;20476;-61
2023/11/07 07:56:59;;;;;;;4.07;0.30;;;;;;;11.79;68.89;99913.03;10404859;28;20048;-62
2023/11/07 08:02:05;;;;;;;4.03;0.52;;;;;;;11.82;68.74;99905.41;10420306;28;20119;-61
2023/11/07 08:07:07;;;;;;;1.98;0.70;;;;;;;11.82;69.01;99904.56;10425601;28;20049;-61
2023/11/07 08:12:10;;;;;;;1.02;0.30;;;;;;;11.90;68.54;99909.84;10421133;28;20399;-62
2023/11/07 08:17:11;;;;;;;2.08;0.70;;;;;;;11.90;68.90;99902.59;10421624;28;20047;-62
2023/11/07 08:22:13;;;;;;;3.20;0.30;;;;;;;11.94;68.82;99910.28;10396468;28;20067;-61
2023/11/07 08:27:14;;;;;;;1.30;0.30;;;;;;;11.99;68.52;99913.25;10422080;28;20056;-61
2023/11/07 08:32:16;;;;;;;1.92;0.30;;;;;;;12.09;68.49;99925.31;10423054;28;20041;-62
2023/11/07 08:37:17;;;;;;;1.52;0.30;;;;;;;12.07;68.70;99916.59;10420321;28;20456;-62
2023/11/07 08:42:18;;;;;;;2.83;0.20;;;;;;;12.13;68.88;99911.47;10419462;28;20034;-61
2023/11/07 08:47:20;;;;;;;4.10;0.28;;;;;;;12.21;68.65;99912.13;10416889;28;20107;-61
2023/11/07 08:52:21;;;;;;;0.75;0.30;;;;;;;12.09;68.45;99909.16;10395692;28;20220;-62
2023/11/07 08:57:24;;;;;;;1.33;0.30;;;;;;;12.13;68.51;99920.38;10386965;28;20053;-61
2023/11/07 09:02:26;;;;;;;1.27;0.32;;;;;;;12.22;68.19;99913.81;10373806;28;20050;-62
2023/11/07 09:07:28;;;;;;;1.60;0.35;;;;;;;12.27;68.32;99914.03;10376140;28;20072;-61
2023/11/07 09:12:30;;;;;;;1.63;0.40;;;;;;;12.14;68.88;99929.28;10376326;28;20112;-59
2023/11/07 09:17:32;;;;;;;0.50;0.20;;;;;;;12.04;68.92;99935.84;10376505;28;20145;-59
2023/11/07 09:22:34;;;;;;;1.38;0.20;;;;;;;12.04;69.06;99935.84;10379086;28;20057;-61
2023/11/07 09:27:36;;;;;;;0.88;0.40;;;;;;;12.03;69.23;99933.38;10376966;28;20053;-59
2023/11/07 09:32:39;;;;;;;2.05;0.20;;;;;;;12.03;69.76;99936.88;10373618;28;20069;-59
2023/11/07 09:37:41;;;;;;;0.60;0.22;;;;;;;12.15;69.47;99945.25;10378843;28;20060;-60
2023/11/07 09:42:45;;;;;;;1.30;0.30;;;;;;;12.09;69.37;99948.75;10381484;28;20052;-60
2023/11/07 09:47:48;;;;;;;1.35;0.45;;;;;;;12.23;69.43;99945.09;10373403;28;20072;-59
2023/11/07 09:52:51;;;;;;;1.45;0.30;;;;;;;12.30;69.03;99951.38;10375693;28;20045;-59
2023/11/07 09:58:02;;;;;;;0.65;0.60;;;;;;;12.26;69.38;99952.81;10378857;28;20982;-59
2023/11/07 10:03:17;;;;;;;0.70;0.30;;;;;;;12.22;69.59;99950.69;10388206;28;20471;-60
2023/11/07 10:08:22;;;;;;;1.58;0.22;;;;;;;12.05;70.13;99953.69;10382372;28;20103;-60
2023/11/07 10:13:24;;;;;;;2.80;0.40;;;;;;;11.93;70.18;99952.56;10383897;28;20056;-60
2023/11/07 10:18:26;;;;;;;0.90;0.30;;;;;;;11.83;70.48;99954.72;10390609;28;20400;-62
2023/11/07 10:23:27;;;;;;;1.13;0.30;;;;;;;11.71;71.15;99952.53;10383257;28;20152;-61
2023/11/07 10:28:29;;;;;;;0.50;0.30;;;;;;;11.63;71.21;99958.06;10359595;28;20052;-61
2023/11/07 10:33:34;;;;;;;1.23;0.30;;;;;;;11.57;71.62;99957.97;10389147;28;20049;-60
2023/11/07 10:38:39;;;;;;;1.58;0.30;;;;;;;11.64;71.65;99948.94;10371976;28;20132;-61
2023/11/07 10:43:41;;;;;;;0.82;0.40;;;;;;;11.71;71.93;99960.63;10380467;28;20092;-62
2023/11/07 10:48:43;;;;;;;2.45;0.30;;;;;;;11.80;72.05;99957.78;10380066;28;20571;-61
2023/11/07 10:53:45;;;;;;;0.60;0.30;;;;;;;11.73;71.70;99959.59;10384654;28;20137;-62
2023/11/07 10:58:54;;;;;;;1.85;0.45;;;;;;;11.45;72.88;99958.50;10426396;28;20049;-62
2023/11/07 11:04:00;;;;;;;0.60;0.30;;;;;;;11.48;73.09;99955.41;10427300;28;20049;-63
2023/11/07 11:09:10;;;;;;;2.80;0.40;;;;;;;11.40;73.99;99952.03;10423929;28;20143;-64
2023/11/07 11:14:11;;;;;;;0.50;0.30;;;;;;;11.35;73.65;99957.97;10422609;28;20093;-64
2023/11/07 11:19:29;;;;;;;1.38;0.52;;;;;;;11.35;74.02;99952.59;10421752;28;20125;-62
2023/11/07 11:24:53;;;;;;;1.15;0.45;;;;;;;11.46;73.72;99944.00;10407175;28;20045;-60
2023/11/07 11:29:55;;;;;;;2.22;0.40;;;;;;;11.47;74.51;99952.91;10424655;28;20053;-63
2023/11/07 11:35:17;;;;;;;1.48;0.40;;;;;;;11.57;73.94;99948.06;10409137;28;20072;-62
2023/11/07 11:40:57;;;;;;;1.60;0.40;;;;;;;11.68;74.15;99949.41;10417202;28;20059;-63
2023/11/07 11:46:14;;;;;;;1.20;0.30;;;;;;;11.67;74.54;99943.19;10422772;28;20534;-61
2023/11/07 11:51:31;;;;;;;3.20;0.40;;;;;;;11.70;74.31;99936.56;10404080;28;20037;-62
2023/11/07 11:56:34;;;;;;;;;;;;;;;11.68;74.82;99936.75;10417608;28;20049;-62
2023/11/07 12:01:49;;;;;;;0.65;0.30;;;;;;;11.69;74.79;99943.00;10420092;28;19921;-62
2023/11/07 12:07:06;;;;;;;1.55;0.50;;;;;;;11.73;74.98;99932.66;10418529;28;20559;-61
2023/11/07 12:12:09;;;;;;;0.80;0.55;;;;;;;11.81;74.68;99929.81;10418346;28;20045;-62
2023/11/07 12:17:11;;;;;;;2.15;0.40;;;;;;;11.85;75.16;99925.75;10416697;28;20106;-62
2023/11/07 12:22:14;;;;;;;1.00;0.30;;;;;;;11.93;74.87;99927.47;10418692;28;20095;-63
2023/11/07 12:27:19;;;;;;;0.80;0.20;;;;;;;12.04;74.78;99919.69;10418770;28;20483;-62
2023/11/07 12:32:21;;;;;;;1.85;0.40;;;;;;;12.20;75.09;99902.38;10425728;28;20103;-61
2023/11/07 12:37:24;;;;;;;0.55;0.20;;;;;;;12.33;74.70;99907.03;10416779;28;20048;-62
2023/11/07 12:42:26;;;;;;;0.70;0.38;;;;;;;12.32;74.86;99910.75;10415425;28;20072;-64
2023/11/07 12:47:29;;;;;;;3.60;0.50;;;;;;;12.25;74.38;99910.72;10417026;28;20045;-63
2023/11/07 12:52:31;;;;;;;0.88;0.20;;;;;;;12.21;74.80;99911.31;10417802;28;20068;-62
2023/11/07 12:57:36;;;;;;;0.30;0.10;;;;;;;12.09;74.99;99919.94;10417467;28;20049;-62
2023/11/07 13:02:39;;;;;;;3.17;0.20;;;;;;;11.80;75.43;99907.44;10413739;28;20487;-61
2023/11/07 13:07:40;;;;;;;1.13;0.20;;;;;;;11.89;75.51;99910.88;10414328;28;20060;-62
2023/11/07 13:12:43;;;;;;;0.20;0.10;;;;;;;11.70;76.34;99910.47;10414687;28;20045;-60
2023/11/07 13:17:46;;;;;;;2.28;0.10;;;;;;;11.89;75.77;99902.81;10426301;28;20048;-62
2023/11/07 13:22:47;;;;;;;0.10;0.10;;;;;;;11.92;75.40;99902.41;10418110;28;21023;-62
2023/11/07 13:27:53;;;;;;;0.40;0.10;;;;;;;12.03;74.88;99890.25;10416841;28;20131;-62
2023/11/07 13:32:54;;;;;;;0.17;0.10;;;;;;;12.07;74.64;99899.63;10417955;28;20041;-62
2023/11/07 13:37:56;;;;;;;0.68;0.20;;;;;;;12.19;74.61;99897.22;10414786;28;20155;-64
2023/11/07 13:42:57;;;;;;;0.20;0.10;;;;;;;12.32;74.22;99905.34;10412231;28;20132;-64
2023/11/07 13:48:01;;;;;;;2.80;0.30;;;;;;;12.38;73.93;99901.88;10418743;28;20055;-63
2023/11/07 13:53:03;;;;;;;1.80;0.20;;;;;;;12.43;73.70;99904.78;10425033;28;20063;-63
2023/11/07 13:58:04;;;;;;;1.85;0.30;;;;;;;11.99;75.17;99940.19;10414963;28;20523;-61
2023/11/07 14:03:07;;;;;;;0.10;0.00;;;;;;;11.29;76.53;99932.69;10418584;28;20065;-63
2023/11/07 14:08:09;;;;;;;2.35;0.10;;;;;;;10.87;77.43;99923.50;10415627;28;20044;-66
2023/11/07 14:13:10;;;;;;;0.05;0.00;;;;;;;10.74;77.55;99933.25;10415498;28;20511;-64
2023/11/07 14:18:12;;;;;;;0.30;0.10;;;;;;;10.48;77.92;99930.03;10418915;28;20041;-63
2023/11/07 14:23:24;;;;;;;0.70;0.20;;;;;;;10.48;77.31;99923.81;10420101;28;20044;-62
2023/11/07 14:28:25;;;;;;;10.15;0.73;;;;;;;10.49;77.04;99931.72;10411032;28;20049;-62
2023/11/07 14:33:27;;;;;;;11.65;1.88;;;;;;;10.63;76.94;99940.78;10422006;28;20049;-62
2023/11/07 14:38:34;;;;;;;1.45;0.60;;;;;;;10.68;77.08;99945.59;10421070;28;20082;-61
2023/11/07 14:43:36;;;;;;;1.77;0.50;;;;;;;10.77;77.37;99936.41;10402232;28;20049;-62
2023/11/07 14:48:37;;;;;;;0.55;0.15;;;;;;;10.88;76.74;99949.38;10422198;28;20500;-62
2023/11/07 14:53:39;;;;;;;1.08;0.30;;;;;;;10.93;76.89;99951.50;10423685;28;20128;-62
2023/11/07 14:58:40;;;;;;;1.58;0.20;;;;;;;11.09;76.55;99947.75;10420850;28;20059;-63
2023/11/07 15:03:42;;;;;;;3.97;0.20;;;;;;;11.14;76.85;99941.78;10418224;28;20041;-62
2023/11/07 15:08:43;;;;;;;1.20;0.30;;;;;;;11.31;76.08;99962.94;10424167;28;20045;-63
2023/11/07 15:13:45;;;;;;;0.90;0.15;;;;;;;11.41;76.11;99957.19;10429828;28;20365;-63
2023/11/07 15:18:47;;;;;;;1.77;0.20;;;;;;;11.58;75.74;99951.59;10409256;28;20099;-64
2023/11/07 15:23:49;;;;;;;3.20;0.20;;;;;;;11.65;75.72;99956.00;10424897;28;20121;-64
2023/11/07 15:28:50;;;;;;;1.90;0.20;;;;;;;11.66;75.47;99956.84;10423928;28;20139;-64
2023/11/07 15:33:55;;;;;;;2.03;0.10;;;;;;;11.63;75.95;99957.22;10412649;28;20045;-64
2023/11/07 15:38:56;;;;;;;1.60;0.20;;;;;;;11.74;75.16;99974.72;10421004;28;20385;-64
2023/11/07 15:43:59;;;;;;;1.50;0.38;;;;;;;11.80;75.06;99968.56;10418503;28;20053;-64
2023/11/07 15:49:00;;;;;;;1.75;0.35;;;;;;;11.79;74.75;99970.44;10403934;28;20062;-65
2023/11/07 15:54:02;;;;;;;0.90;0.30;;;;;;;11.77;74.51;99974.31;10405986;28;20500;-65
2023/11/07 15:59:04;;;;;;;3.92;0.73;;;;;;;11.75;74.37;99982.63;10416008;28;20073;-65
2023/11/07 16:04:06;;;;;;;1.40;0.30;;;;;;;11.67;74.73;99991.66;10408236;28;20049;-64
2023/11/07 16:09:08;;;;;;;1.02;0.20;;;;;;;11.64;74.31;99997.41;10422003;28;20053;-64
2023/11/07 16:14:10;;;;;;;3.75;0.35;;;;;;;11.73;74.22;99999.97;10410273;28;20107;-65
2023/11/07 16:19:11;;;;;;;1.13;0.40;;;;;;;11.68;74.35;99995.16;10429014;28;20075;-70
2023/11/07 16:24:13;;;;;;;1.88;0.40;;;;;;;11.67;73.70;100001.56;10395830;28;20033;-70
2023/11/07 16:29:17;;;;;;;3.28;0.30;;;;;;;11.67;73.47;100005.13;10417996;28;20053;-69
2023/11/07 16:34:18;;;;;;;3.05;0.90;;;;;;;11.57;73.23;100010.00;10388070;28;20056;-69
2023/11/07 16:39:20;;;;;;;1.45;0.40;;;;;;;11.45;73.57;100015.03;10418105;28;20057;-69
2023/11/07 16:44:21;;;;;;;1.70;0.40;;;;;;;11.38;73.51;100026.75;10417986;28;20207;-69
2023/11/07 16:49:23;;;;;;;1.60;0.70;;;;;;;11.32;73.40;100037.22;10396354;28;20053;-70
2023/11/07 16:54:24;;;;;;;0.75;0.40;;;;;;;11.27;73.43;100036.94;10384333;28;20049;-68
2023/11/07 16:59:26;;;;;;;3.38;0.70;;;;;;;11.18;73.57;100038.09;10400297;28;20143;-69
2023/11/07 17:04:27;;;;;;;2.47;0.30;;;;;;;11.13;73.75;100045.88;10405476;28;20037;-70
2023/11/07 17:09:29;;;;;;;0.80;0.50;;;;;;;11.14;73.74;100044.88;10418464;28;20143;-67
2023/11/07 17:14:31;;;;;;;3.60;0.45;;;;;;;11.13;73.68;100056.66;10406005;28;20052;-70
2023/11/07 17:19:33;;;;;;;4.00;0.57;;;;;;;11.08;73.76;100051.00;10393476;28;20140;-70
2023/11/07 17:24:35;;;;;;;2.15;0.60;;;;;;;11.07;73.25;100068.16;10411744;28;20041;-70
2023/11/07 17:29:36;;;;;;;2.00;0.40;;;;;;;11.08;72.98;100067.16;10401594;28;20129;-71
2023/11/07 17:34:38;;;;;;;3.03;0.50;;;;;;;11.04;73.01;100064.00;10419188;28;20072;-69
2023/11/07 17:39:40;;;;;;;3.40;0.65;;;;;;;10.99;73.39;100074.47;10418282;28;20045;-67
2023/11/07 17:44:41;;;;;;;4.40;1.33;;;;;;;11.00;73.43;100078.84;10421163;28;20044;-70
2023/11/07 17:49:43;;;;;;;4.63;2.15;;;;;;;10.99;72.52;100089.78;10407797;28;20082;-68
2023/11/07 17:54:44;;;;;;;2.55;0.80;;;;;;;10.92;72.83;100089.69;10408010;28;20045;-72
2023/11/07 17:59:51;;;;;;;6.97;1.63;;;;;;;10.86;73.02;100090.41;10422482;28;20045;-69
2023/11/07 18:04:53;;;;;;;3.35;0.90;;;;;;;10.75;73.29;100080.94;10418058;28;20815;-68
2023/11/07 18:09:54;;;;;;;6.35;2.10;;;;;;;10.68;73.80;100086.22;10389184;28;20056;-66
2023/11/07 18:14:57;;;;;;;7.05;2.13;;;;;;;10.60;73.72;100088.97;10394384;28;20377;-68
2023/11/07 18:19:59;;;;;;;5.72;1.50;;;;;;;10.55;73.50;100085.19;10393805;28;20140;-71
2023/11/07 18:25:05;;;;;;;4.97;1.55;;;;;;;10.50;73.71;100104.53;10390381;28;20141;-70
2023/11/07 18:30:07;;;;;;;3.28;0.73;;;;;;;10.49;73.73;100110.94;10411765;28;20049;-67
2023/11/07 18:35:09;;;;;;;1.60;0.50;;;;;;;10.43;73.57;100111.66;10430098;28;20054;-67
2023/11/07 18:40:12;;;;;;;3.10;0.50;;;;;;;10.43;73.63;100120.56;10408936;28;20073;-68
2023/11/07 18:45:15;;;;;;;3.85;0.50;;;;;;;10.33;73.63;100125.34;10389546;28;20047;-69
2023/11/07 18:50:17;;;;;;;4.10;0.40;;;;;;;10.26;73.69;100124.34;10399305;28;20238;-68
2023/11/07 18:55:19;;;;;;;2.58;0.40;;;;;;;10.25;73.88;100118.16;10408364;28;20160;-68
2023/11/07 19:00:21;;;;;;;2.42;0.45;;;;;;;10.22;73.99;100114.97;10411122;28;20037;-68
2023/11/07 19:05:25;;;;;;;1.15;0.43;;;;;;;10.15;73.65;100116.69;10428163;28;20051;-70
2023/11/07 19:10:26;;;;;;;2.28;1.15;;;;;;;10.14;73.64;100123.94;10426418;28;20144;-68
2023/11/07 19:15:29;;;;;;;2.38;0.55;;;;;;;10.09;74.19;100124.47;10408348;28;20033;-68
2023/11/07 19:20:30;;;;;;;3.97;1.25;;;;;;;10.07;73.73;100129.19;10408123;28;20045;-70
2023/11/07 19:25:32;;;;;;;1.38;0.32;;;;;;;10.03;74.04;100133.25;10426890;28;20041;-71
2023/11/07 19:30:33;;;;;;;2.58;0.38;;;;;;;10.00;74.11;100132.75;10419089;28;20377;-68
2023/11/07 19:35:35;;;;;;;4.35;0.50;;;;;;;10.01;73.78;100131.72;10426800;28;20060;-69
2023/11/07 19:40:36;;;;;;;5.00;0.80;;;;;;;9.97;73.79;100141.16;10424688;28;20044;-67
2023/11/07 19:45:38;;;;;;;6.38;0.85;;;;;;;9.88;74.23;100146.56;10410430;28;20076;-65
2023/11/07 19:50:39;;;;;;;1.02;0.43;;;;;;;9.91;73.97;100156.13;10421458;28;20042;-66
2023/11/07 19:55:42;;;;;;;6.60;0.75;;;;;;;9.87;74.14;100144.91;10423495;28;20049;-65
2023/11/07 20:00:43;;;;;;;3.13;0.30;;;;;;;9.83;74.04;100146.25;10409204;28;20050;-66
2023/11/07 20:05:48;;;;;;;5.97;0.50;;;;;;;9.81;74.11;100161.69;10407839;28;20049;-65
2023/11/07 20:10:50;;;;;;;4.13;0.50;;;;;;;9.85;74.36;100167.56;10407970;28;20479;-62
2023/11/07 20:15:53;;;;;;;2.53;0.40;;;;;;;9.89;74.18;100159.00;10424983;28;20049;-68
2023/11/07 20:20:54;;;;;;;2.30;0.40;;;;;;;9.84;74.38;100163.22;10421637;28;20208;-64
2023/11/07 20:25:56;;;;;;;2.80;0.60;;;;;;;9.78;74.35;100164.75;10420832;28;20052;-64
2023/11/07 20:30:57;;;;;;;1.98;0.68;;;;;;;9.79;74.34;100153.00;10420479;28;20053;-66
2023/11/07 20:36:00;;;;;;;3.08;0.77;;;;;;;9.75;74.81;100158.91;10423592;28;20049;-66
2023/11/07 20:41:02;;;;;;;2.70;1.13;;;;;;;9.71;74.34;100156.56;10420024;28;20049;-66
2023/11/07 20:46:03;;;;;;;3.92;0.60;;;;;;;9.68;74.51;100164.97;10420191;28;20047;-66
2023/11/07 20:51:10;;;;;;;3.80;0.63;;;;;;;9.59;74.87;100163.31;10414279;28;20068;-66
2023/11/07 20:56:12;;;;;;;6.65;1.08;;;;;;;9.58;74.67;100168.84;10411809;28;20056;-66
2023/11/07 21:01:16;;;;;;;1.25;0.98;;;;;;;9.53;74.84;100172.91;10414214;28;20071;-62
2023/11/07 21:06:17;;;;;;;3.55;0.95;;;;;;;9.53;74.96;100164.03;10412342;28;20044;-63
2023/11/07 21:11:21;;;;;;;5.68;0.82;;;;;;;9.56;75.02;100168.19;10412974;28;20174;-63
2023/11/07 21:16:22;;;;;;;4.03;1.10;;;;;;;9.64;74.83;100168.19;10414893;28;20103;-63
2023/11/07 21:21:24;;;;;;;7.70;1.25;;;;;;;9.58;74.77;100172.41;10414808;28;20052;-65
2023/11/07 21:26:26;;;;;;;7.63;0.70;;;;;;;9.61;75.27;100172.03;10410304;28;20080;-64
2023/11/07 21:31:27;;;;;;;2.55;0.70;;;;;;;9.73;74.81;100173.34;10420473;28;20041;-63
2023/11/07 21:36:29;;;;;;;3.45;0.40;;;;;;;9.72;75.46;100168.97;10416412;28;20041;-64
2023/11/07 21:41:30;;;;;;;5.75;0.70;;;;;;;9.78;74.94;100166.63;10410388;28;20052;-64
2023/11/07 21:46:31;;;;;;;7.20;0.70;;;;;;;9.85;75.27;100168.44;10415930;28;20060;-64
2023/11/07 21:51:33;;;;;;;4.75;0.70;;;;;;;9.87;74.99;100158.34;10417878;28;20553;-64
2023/11/07 21:56:34;;;;;;;2.75;0.50;;;;;;;9.82;74.93;100152.66;10416431;28;20052;-63
2023/11/07 22:01:36;;;;;;;8.35;0.75;;;;;;;9.87;74.90;100162.84;10421803;28;20575;-64
2023/11/07 22:06:38;;;;;;;1.20;0.40;;;;;;;9.86;74.98;100159.34;10424567;28;20060;-65
2023/11/07 22:11:39;;;;;;;4.63;0.60;;;;;;;9.89;74.67;100163.50;10430294;28;20407;-65
2023/11/07 22:16:45;;;;;;;4.70;0.95;;;;;;;9.92;75.12;100163.19;10423334;28;20512;-66
2023/11/07 22:21:46;;;;;;;4.60;0.57;;;;;;;9.94;75.19;100169.19;10423821;28;20057;-63
2023/11/07 22:26:48;;;;;;;7.65;0.60;;;;;;;9.98;74.83;100183.13;10421284;28;20048;-64
2023/11/07 22:31:49;;;;;;;1.35;0.57;;;;;;;10.09;74.91;100174.63;10428004;28;20044;-65
2023/11/07 22:36:50;;;;;;;2.75;0.50;;;;;;;10.11;74.75;100186.91;10421681;28;20053;-65
2023/11/07 22:41:52;;;;;;;4.63;0.60;;;;;;;10.13;74.59;100192.09;10424153;28;20045;-65
2023/11/07 22:46:53;;;;;;;5.55;0.95;;;;;;;10.21;74.40;100194.72;10422518;28;20044;-65
2023/11/07 22:51:55;;;;;;;1.38;0.40;;;;;;;10.19;74.32;100194.06;10436088;28;20067;-65
2023/11/07 22:56:56;;;;;;;5.07;1.20;;;;;;;10.17;74.60;100206.84;10447546;28;20045;-62
2023/11/07 23:01:58;;;;;;;2.50;0.50;;;;;;;10.23;74.70;100202.59;10453071;28;20036;-63
2023/11/07 23:07:00;;;;;;;8.02;0.60;;;;;;;10.21;74.79;100192.06;10420505;28;20067;-62
2023/11/07 23:12:03;;;;;;;2.50;0.50;;;;;;;10.21;74.52;100185.81;10409320;28;20073;-64
2023/11/07 23:17:06;;;;;;;6.15;0.60;;;;;;;10.15;74.30;100186.53;10409728;28;20052;-62
2023/11/07 23:22:07;;;;;;;3.20;0.47;;;;;;;10.18;74.29;100188.88;10392308;28;20068;-64
2023/11/07 23:27:09;;;;;;;3.92;0.40;;;;;;;10.22;74.07;100191.03;10397433;28;20107;-63